createdAt,value
2018-07-07T00:01:37.416Z,9.30
2018-07-07T00:04:06.627Z,9.20
2018-07-07T00:06:35.833Z,9.10
2018-07-07T00:09:05.160Z,9.10
2018-07-07T00:11:34.332Z,9.10
2018-07-07T00:14:03.605Z,9.20
2018-07-07T00:16:32.748Z,9.10
2018-07-07T00:19:01.989Z,9.10
2018-07-07T00:21:31.209Z,8.90
2018-07-07T00:24:00.412Z,8.80
2018-07-07T00:26:29.585Z,8.90
2018-07-07T00:28:58.800Z,8.70
2018-07-07T00:31:27.977Z,8.70
2018-07-07T00:33:57.171Z,8.70
2018-07-07T00:36:26.360Z,8.60
2018-07-07T00:38:55.505Z,8.60
2018-07-07T00:41:24.801Z,8.50
2018-07-07T00:43:54.141Z,8.50
2018-07-07T00:46:23.268Z,8.50
2018-07-07T00:48:52.529Z,8.40
2018-07-07T00:51:21.718Z,8.50
2018-07-07T00:53:50.861Z,8.50
2018-07-07T00:56:19.969Z,8.40
2018-07-07T00:58:49.165Z,8.30
2018-07-07T01:01:18.310Z,8.20
2018-07-07T01:03:47.459Z,8.10
2018-07-07T01:06:24.142Z,8.00
2018-07-07T01:08:53.345Z,8.10
2018-07-07T01:11:22.474Z,8.10
2018-07-07T01:13:51.833Z,8.10
2018-07-07T01:16:20.951Z,8.00
2018-07-07T01:18:50.130Z,7.90
2018-07-07T01:21:19.297Z,7.90
2018-07-07T01:23:48.526Z,8.00
2018-07-07T01:26:17.685Z,8.00
2018-07-07T01:28:46.817Z,8.00
2018-07-07T01:31:15.980Z,8.10
2018-07-07T01:33:45.181Z,8.10
2018-07-07T01:36:14.298Z,8.10
2018-07-07T01:38:43.440Z,8.10
2018-07-07T01:41:12.709Z,8.10
2018-07-07T01:43:41.893Z,8.10
2018-07-07T01:46:11.096Z,8.10
2018-07-07T01:48:40.257Z,8.00
2018-07-07T01:51:09.397Z,8.00
2018-07-07T01:53:38.559Z,8.00
2018-07-07T01:56:07.748Z,8.00
2018-07-07T01:58:36.920Z,7.90
2018-07-07T02:01:06.453Z,7.90
2018-07-07T02:03:35.705Z,7.90
2018-07-07T02:06:04.971Z,7.80
2018-07-07T02:08:34.156Z,7.80
2018-07-07T02:11:03.357Z,7.80
2018-07-07T02:13:32.476Z,7.80
2018-07-07T02:16:01.604Z,7.80
2018-07-07T02:18:30.840Z,7.90
2018-07-07T02:21:00.025Z,8.00
2018-07-07T02:23:29.136Z,8.00
2018-07-07T02:25:58.401Z,8.10
2018-07-07T02:28:27.596Z,8.10
2018-07-07T02:30:56.720Z,8.10
2018-07-07T02:33:25.871Z,8.10
2018-07-07T02:35:55.129Z,8.10
2018-07-07T02:38:24.224Z,8.30
2018-07-07T02:40:53.391Z,8.40
2018-07-07T02:43:22.603Z,8.40
2018-07-07T02:45:51.773Z,8.50
2018-07-07T02:48:20.981Z,8.70
2018-07-07T02:50:50.107Z,8.70
2018-07-07T02:53:19.363Z,8.70
2018-07-07T02:55:48.516Z,8.80
2018-07-07T02:58:17.629Z,8.90
2018-07-07T03:00:46.838Z,8.90
2018-07-07T03:03:15.981Z,9.00
2018-07-07T03:05:45.145Z,9.00
2018-07-07T03:08:14.240Z,9.10
2018-07-07T03:10:43.457Z,9.30
2018-07-07T03:13:12.569Z,9.30
2018-07-07T03:15:41.780Z,9.40
2018-07-07T03:18:10.941Z,9.40
2018-07-07T03:20:40.101Z,9.40
2018-07-07T03:23:09.213Z,9.40
2018-07-07T03:25:38.338Z,9.50
2018-07-07T03:28:07.523Z,9.50
2018-07-07T03:30:36.701Z,9.60
2018-07-07T03:33:06.016Z,9.60
2018-07-07T03:35:35.141Z,9.70
2018-07-07T03:38:04.365Z,9.80
2018-07-07T03:40:33.483Z,9.70
2018-07-07T03:43:02.626Z,9.80
2018-07-07T03:45:31.773Z,9.90
2018-07-07T03:48:00.895Z,9.90
2018-07-07T03:50:30.062Z,9.90
2018-07-07T03:52:59.205Z,9.90
2018-07-07T03:55:28.384Z,9.90
2018-07-07T03:57:57.524Z,9.90
2018-07-07T04:00:26.666Z,9.90
2018-07-07T04:02:55.800Z,9.90
2018-07-07T04:05:24.964Z,10.00
2018-07-07T04:07:54.273Z,10.00
2018-07-07T04:10:23.416Z,10.10
2018-07-07T04:12:52.605Z,10.20
2018-07-07T04:15:21.756Z,10.40
2018-07-07T04:17:50.936Z,10.40
2018-07-07T04:20:20.153Z,10.40
2018-07-07T04:22:49.598Z,10.50
2018-07-07T04:25:18.820Z,10.50
2018-07-07T04:27:47.998Z,10.60
2018-07-07T04:30:17.137Z,10.60
2018-07-07T04:32:46.495Z,10.70
2018-07-07T04:35:15.696Z,10.90
2018-07-07T04:37:44.888Z,11.10
2018-07-07T04:40:14.050Z,11.30
2018-07-07T04:42:43.196Z,11.30
2018-07-07T04:45:12.487Z,11.50
2018-07-07T04:47:41.625Z,11.50
2018-07-07T04:50:10.917Z,11.60
2018-07-07T04:52:40.094Z,11.60
2018-07-07T04:55:09.299Z,11.70
2018-07-07T04:57:38.525Z,11.70
2018-07-07T05:00:07.670Z,11.70
2018-07-07T05:02:36.847Z,11.70
2018-07-07T05:05:06.189Z,11.80
2018-07-07T05:07:35.326Z,11.80
2018-07-07T05:10:04.559Z,11.80
2018-07-07T05:12:33.699Z,11.80
2018-07-07T05:15:02.865Z,11.80
2018-07-07T05:17:32.051Z,11.90
2018-07-07T05:20:01.285Z,11.90
2018-07-07T05:22:30.431Z,11.90
2018-07-07T05:24:59.683Z,11.80
2018-07-07T05:27:28.888Z,11.60
2018-07-07T05:29:58.232Z,11.60
2018-07-07T05:32:27.454Z,11.60
2018-07-07T05:34:56.638Z,11.70
2018-07-07T05:37:25.980Z,11.90
2018-07-07T05:39:55.150Z,12.10
2018-07-07T05:42:24.320Z,12.30
2018-07-07T05:44:53.611Z,12.40
2018-07-07T05:47:22.856Z,12.60
2018-07-07T05:49:52.066Z,12.70
2018-07-07T05:52:21.232Z,12.80
2018-07-07T05:54:50.435Z,12.90
2018-07-07T05:57:19.613Z,13.10
2018-07-07T05:59:48.766Z,13.30
2018-07-07T06:02:17.923Z,13.50
2018-07-07T06:04:47.124Z,13.70
2018-07-07T06:07:16.409Z,13.80
2018-07-07T06:09:45.651Z,13.90
2018-07-07T06:12:14.895Z,14.00
2018-07-07T06:14:44.056Z,14.10
2018-07-07T06:17:13.257Z,14.10
2018-07-07T06:19:42.571Z,14.20
2018-07-07T06:22:11.742Z,14.20
2018-07-07T06:24:41.045Z,14.20
2018-07-07T06:27:10.202Z,14.20
2018-07-07T06:29:39.535Z,14.30
2018-07-07T06:32:08.728Z,14.30
2018-07-07T06:34:37.881Z,14.40
2018-07-07T06:37:07.085Z,14.40
2018-07-07T06:39:36.274Z,14.40
2018-07-07T06:42:05.549Z,14.50
2018-07-07T06:44:34.754Z,14.50
2018-07-07T06:47:03.944Z,14.60
2018-07-07T06:49:33.168Z,14.70
2018-07-07T06:55:01.964Z,14.80
2018-07-07T06:57:31.173Z,14.90
2018-07-07T07:00:00.392Z,15.00
2018-07-07T07:02:29.478Z,15.20
2018-07-07T07:04:58.768Z,15.20
2018-07-07T07:07:27.883Z,15.20
2018-07-07T07:09:57.158Z,15.20
2018-07-07T07:12:26.460Z,15.30
2018-07-07T07:14:55.592Z,15.40
2018-07-07T07:17:24.713Z,15.50
2018-07-07T07:19:54.037Z,15.50
2018-07-07T07:22:23.201Z,15.50
2018-07-07T07:24:52.388Z,15.70
2018-07-07T07:27:21.536Z,16.10
2018-07-07T07:29:50.685Z,16.50
2018-07-07T07:32:19.937Z,16.80
2018-07-07T07:34:49.104Z,17.20
2018-07-07T07:37:18.489Z,17.60
2018-07-07T07:39:48.831Z,17.80
2018-07-07T07:42:17.992Z,18.10
2018-07-07T07:44:47.428Z,18.50
2018-07-07T07:47:16.806Z,18.60
2018-07-07T07:49:46.106Z,18.80
2018-07-07T07:52:15.344Z,18.70
2018-07-07T07:54:44.634Z,18.80
2018-07-07T07:57:13.828Z,19.10
2018-07-07T07:59:43.077Z,18.80
2018-07-07T08:02:12.655Z,19.00
2018-07-07T08:04:41.988Z,19.00
2018-07-07T08:07:11.196Z,18.70
2018-07-07T08:09:40.426Z,18.70
2018-07-07T08:12:09.805Z,18.20
2018-07-07T08:14:44.267Z,17.80
2018-07-07T08:17:18.152Z,17.90
2018-07-07T08:19:51.340Z,18.40
2018-07-07T08:22:20.741Z,18.90
2018-07-07T08:24:50.937Z,18.60
2018-07-07T08:27:20.246Z,18.20
2018-07-07T08:29:53.938Z,18.00
2018-07-07T08:32:23.339Z,18.10
2018-07-07T08:34:53.833Z,18.60
2018-07-07T08:37:23.735Z,18.70
2018-07-07T08:39:59.165Z,19.10
2018-07-07T08:42:33.296Z,19.30
2018-07-07T08:45:03.433Z,19.10
2018-07-07T08:47:33.285Z,18.90
2018-07-07T08:50:06.334Z,18.40
2018-07-07T08:52:36.112Z,18.30
2018-07-07T08:55:06.430Z,18.20
2018-07-07T08:57:37.244Z,18.40
2018-07-07T09:00:06.554Z,18.50
2018-07-07T09:02:35.849Z,18.90
2018-07-07T09:05:05.276Z,19.40
2018-07-07T09:07:34.487Z,19.30
2018-07-07T09:10:04.012Z,19.30
2018-07-07T09:12:33.281Z,19.20
2018-07-07T09:15:02.577Z,18.80
2018-07-07T09:17:31.850Z,18.90
2018-07-07T09:20:01.113Z,18.90
2018-07-07T09:22:30.550Z,18.80
2018-07-07T09:25:00.285Z,19.00
2018-07-07T09:27:29.527Z,19.10
2018-07-07T09:29:58.726Z,19.20
2018-07-07T09:32:27.925Z,19.60
2018-07-07T09:34:57.197Z,19.50
2018-07-07T09:37:27.186Z,19.40
2018-07-07T09:39:56.436Z,19.30
2018-07-07T09:42:25.662Z,18.90
2018-07-07T09:44:54.969Z,18.80
2018-07-07T09:47:24.454Z,18.70
2018-07-07T09:49:53.690Z,18.80
2018-07-07T09:52:22.824Z,19.20
2018-07-07T09:54:52.026Z,19.10
2018-07-07T09:57:21.256Z,19.00
2018-07-07T09:59:50.466Z,18.90
2018-07-07T10:02:19.809Z,18.90
2018-07-07T10:04:49.120Z,18.90
2018-07-07T10:07:18.581Z,18.80
2018-07-07T10:09:47.901Z,19.20
2018-07-07T10:12:17.246Z,19.20
2018-07-07T10:14:46.410Z,19.10
2018-07-07T10:17:16.058Z,19.10
2018-07-07T10:19:45.328Z,19.20
2018-07-07T10:22:14.621Z,19.30
2018-07-07T10:24:43.782Z,19.50
2018-07-07T10:27:13.081Z,19.60
2018-07-07T10:29:42.281Z,19.70
2018-07-07T10:32:11.588Z,19.80
2018-07-07T10:34:40.815Z,19.80
2018-07-07T10:37:10.971Z,19.90
2018-07-07T10:39:45.180Z,19.70
2018-07-07T10:42:14.595Z,19.80
2018-07-07T10:44:43.780Z,19.80
2018-07-07T10:47:13.033Z,19.90
2018-07-07T10:49:42.403Z,19.90
2018-07-07T10:52:15.999Z,19.80
2018-07-07T10:54:46.799Z,19.80
2018-07-07T10:57:16.200Z,20.00
2018-07-07T10:59:46.087Z,20.00
2018-07-07T11:02:15.356Z,20.00
2018-07-07T11:04:44.529Z,20.00
2018-07-07T11:09:44.349Z,20.00
2018-07-07T11:12:13.969Z,20.00
2018-07-07T11:14:43.188Z,20.10
2018-07-07T11:17:12.337Z,20.30
2018-07-07T11:19:41.590Z,20.30
2018-07-07T11:22:10.818Z,20.20
2018-07-07T11:24:40.157Z,20.00
2018-07-07T11:27:09.413Z,20.10
2018-07-07T11:29:39.091Z,20.10
2018-07-07T11:32:08.236Z,20.20
2018-07-07T11:34:37.530Z,20.20
2018-07-07T11:37:06.959Z,20.30
2018-07-07T11:39:36.750Z,20.40
2018-07-07T11:42:06.212Z,20.30
2018-07-07T11:44:35.381Z,20.50
2018-07-07T11:47:04.594Z,20.80
2018-07-07T11:49:33.952Z,20.80
2018-07-07T11:52:03.197Z,20.90
2018-07-07T11:54:32.447Z,20.70
2018-07-07T11:57:01.670Z,20.50
2018-07-07T11:59:30.837Z,20.40
2018-07-07T12:02:00.433Z,20.50
2018-07-07T12:04:29.784Z,20.60
2018-07-07T12:06:59.124Z,20.60
2018-07-07T12:09:28.568Z,20.70
2018-07-07T12:11:58.010Z,20.90
2018-07-07T12:14:27.284Z,20.80
2018-07-07T12:16:56.619Z,21.00
2018-07-07T12:19:26.135Z,21.10
2018-07-07T12:21:55.548Z,21.40
2018-07-07T12:24:24.723Z,21.30
2018-07-07T12:26:54.081Z,21.10
2018-07-07T12:29:23.214Z,20.90
2018-07-07T12:31:53.022Z,20.80
2018-07-07T12:34:22.378Z,20.80
2018-07-07T12:36:51.665Z,20.80
2018-07-07T12:39:21.133Z,20.90
2018-07-07T12:41:50.727Z,21.10
2018-07-07T12:44:20.348Z,21.00
2018-07-07T12:46:53.900Z,21.20
2018-07-07T12:49:23.740Z,21.50
2018-07-07T12:51:56.784Z,21.80
2018-07-07T12:54:30.662Z,22.00
2018-07-07T12:57:00.238Z,21.90
2018-07-07T12:59:29.495Z,21.90
2018-07-07T13:01:59.044Z,22.00
2018-07-07T13:04:28.620Z,22.20
2018-07-07T13:06:58.270Z,22.20
2018-07-07T13:09:27.577Z,22.00
2018-07-07T13:11:57.105Z,21.80
2018-07-07T13:14:26.549Z,21.80
2018-07-07T13:16:57.360Z,22.00
2018-07-07T13:19:26.656Z,22.40
2018-07-07T13:21:56.355Z,22.70
2018-07-07T13:24:33.726Z,22.80
2018-07-07T13:27:04.367Z,23.10
2018-07-07T13:29:34.405Z,23.10
2018-07-07T13:32:04.007Z,23.30
2018-07-07T13:34:33.257Z,23.40
2018-07-07T13:37:02.635Z,23.20
2018-07-07T13:39:32.872Z,23.10
2018-07-07T13:42:02.453Z,23.60
2018-07-07T13:44:32.684Z,23.90
2018-07-07T13:47:02.032Z,23.50
2018-07-07T13:49:31.356Z,23.50
2018-07-07T13:52:00.883Z,24.00
2018-07-07T13:54:30.152Z,24.00
2018-07-07T13:57:04.624Z,24.50
2018-07-07T13:59:34.265Z,24.20
2018-07-07T14:02:03.561Z,24.20
2018-07-07T14:04:32.828Z,24.50
2018-07-07T14:07:01.986Z,24.30
2018-07-07T14:09:31.253Z,24.30
2018-07-07T14:12:03.669Z,24.60
2018-07-07T14:14:33.088Z,25.00
2018-07-07T14:17:03.544Z,24.70
2018-07-07T14:19:32.988Z,25.10
2018-07-07T14:22:02.355Z,24.60
2018-07-07T14:24:40.537Z,24.70
2018-07-07T14:27:10.774Z,24.80
2018-07-07T14:29:40.092Z,25.50
2018-07-07T14:32:21.370Z,25.60
2018-07-07T14:35:00.484Z,25.40
2018-07-07T14:37:30.560Z,25.00
2018-07-07T14:40:01.127Z,25.10
2018-07-07T14:42:50.606Z,25.20
2018-07-07T14:45:28.355Z,25.70
2018-07-07T14:47:59.610Z,25.70
2018-07-07T14:50:30.511Z,25.40
2018-07-07T14:52:59.821Z,25.50
2018-07-07T14:55:29.486Z,25.60
2018-07-07T14:57:58.807Z,25.80
2018-07-07T15:00:28.760Z,25.70
2018-07-07T15:02:58.421Z,26.10
2018-07-07T15:05:27.590Z,25.60
2018-07-07T15:07:56.917Z,24.60
2018-07-07T15:10:26.171Z,24.30
2018-07-07T15:12:55.497Z,23.60
2018-07-07T15:15:24.850Z,24.20
2018-07-07T15:17:54.072Z,25.20
2018-07-07T15:20:23.698Z,25.80
2018-07-07T15:22:52.997Z,25.80
2018-07-07T15:25:22.432Z,25.70
2018-07-07T15:27:51.690Z,25.40
2018-07-07T15:30:22.168Z,25.50
2018-07-07T15:32:51.631Z,25.90
2018-07-07T15:35:20.879Z,25.70
2018-07-07T15:37:50.313Z,25.60
2018-07-07T15:40:19.862Z,25.60
2018-07-07T15:42:53.178Z,25.70
2018-07-07T15:45:24.714Z,25.60
2018-07-07T15:47:54.378Z,25.80
2018-07-07T15:50:24.309Z,25.30
2018-07-07T15:52:59.792Z,25.40
2018-07-07T15:55:38.648Z,25.50
2018-07-07T15:58:09.619Z,25.40
2018-07-07T16:00:43.709Z,25.30
2018-07-07T16:03:15.055Z,25.60
2018-07-07T16:05:45.983Z,25.50
2018-07-07T16:08:15.184Z,25.00
2018-07-07T16:10:45.036Z,24.40
2018-07-07T16:13:14.829Z,24.50
2018-07-07T16:15:44.134Z,24.60
2018-07-07T16:18:13.310Z,24.50
2018-07-07T16:20:44.165Z,24.50
2018-07-07T16:23:13.313Z,24.60
2018-07-07T16:25:42.541Z,25.20
2018-07-07T16:28:11.808Z,25.90
2018-07-07T16:30:41.045Z,26.00
2018-07-07T16:33:10.247Z,26.00
2018-07-07T16:35:40.021Z,25.70
2018-07-07T16:38:09.317Z,25.00
2018-07-07T16:40:38.731Z,24.80
2018-07-07T16:43:08.176Z,25.30
2018-07-07T16:45:37.893Z,25.70
2018-07-07T16:48:07.180Z,25.70
2018-07-07T16:50:36.443Z,25.30
2018-07-07T16:53:06.247Z,25.30
2018-07-07T16:55:35.505Z,25.30
2018-07-07T16:58:05.300Z,25.40
2018-07-07T17:00:35.722Z,25.30
2018-07-07T17:03:05.800Z,25.20
2018-07-07T17:05:35.038Z,24.90
2018-07-07T17:08:04.259Z,24.70
2018-07-07T17:10:33.476Z,24.20
2018-07-07T17:13:03.187Z,24.20
2018-07-07T17:15:33.535Z,23.70
2018-07-07T17:18:04.178Z,23.50
2018-07-07T17:20:33.976Z,23.60
2018-07-07T17:23:03.257Z,23.60
2018-07-07T17:25:32.574Z,23.70
2018-07-07T17:28:05.447Z,24.20
2018-07-07T17:30:34.643Z,24.50
2018-07-07T17:33:03.908Z,24.60
2018-07-07T17:35:33.230Z,24.60
2018-07-07T17:38:03.664Z,24.20
2018-07-07T17:40:33.028Z,23.70
2018-07-07T17:43:02.532Z,23.60
2018-07-07T17:45:32.042Z,23.60
2018-07-07T17:48:11.105Z,23.60
2018-07-07T17:50:40.412Z,23.40
2018-07-07T17:53:09.638Z,22.70
2018-07-07T17:55:38.933Z,22.80
2018-07-07T17:58:08.168Z,22.50
2018-07-07T18:00:37.437Z,22.60
2018-07-07T18:03:06.639Z,22.80
2018-07-07T18:05:35.784Z,22.90
2018-07-07T18:08:05.344Z,23.40
2018-07-07T18:10:35.685Z,23.50
2018-07-07T18:13:05.113Z,23.30
2018-07-07T18:15:34.372Z,22.90
2018-07-07T18:18:03.661Z,22.60
2018-07-07T18:20:32.967Z,22.80
2018-07-07T18:23:02.177Z,23.00
2018-07-07T18:25:31.301Z,23.00
2018-07-07T18:28:00.516Z,22.70
2018-07-07T18:30:29.673Z,22.20
2018-07-07T18:32:58.892Z,21.90
2018-07-07T18:35:28.106Z,21.50
2018-07-07T18:37:57.463Z,21.20
2018-07-07T18:40:26.778Z,20.90
2018-07-07T18:42:55.942Z,20.60
2018-07-07T18:45:25.159Z,20.20
2018-07-07T18:47:54.376Z,20.10
2018-07-07T18:50:23.550Z,20.00
2018-07-07T18:52:52.872Z,20.00
2018-07-07T18:55:22.177Z,19.90
2018-07-07T18:57:51.412Z,19.70
2018-07-07T19:00:20.655Z,19.40
2018-07-07T19:02:49.852Z,19.10
2018-07-07T19:05:19.291Z,18.90
2018-07-07T19:07:48.550Z,18.80
2018-07-07T19:10:18.001Z,18.60
2018-07-07T19:12:47.192Z,18.50
2018-07-07T19:15:20.814Z,18.30
2018-07-07T19:17:51.132Z,18.10
2018-07-07T19:20:25.490Z,18.00
2018-07-07T19:23:00.215Z,17.90
2018-07-07T19:25:34.669Z,17.80
2018-07-07T19:28:03.941Z,17.70
2018-07-07T19:30:33.088Z,17.50
2018-07-07T19:33:07.498Z,17.50
2018-07-07T19:35:42.154Z,17.30
2018-07-07T19:38:11.458Z,17.20
2018-07-07T19:40:40.737Z,17.10
2018-07-07T19:43:10.138Z,17.00
2018-07-07T19:45:39.540Z,16.90
2018-07-07T19:48:09.048Z,16.80
2018-07-07T19:50:38.662Z,16.60
2018-07-07T19:53:08.056Z,16.50
2018-07-07T19:55:37.312Z,16.40
2018-07-07T19:58:06.997Z,16.30
2018-07-07T20:00:36.149Z,16.20
2018-07-07T20:03:05.481Z,16.20
2018-07-07T20:05:34.660Z,16.10
2018-07-07T20:08:03.902Z,16.10
2018-07-07T20:10:33.072Z,16.00
2018-07-07T20:13:02.348Z,15.90
2018-07-07T20:15:42.735Z,15.80
2018-07-07T20:18:11.912Z,15.70
2018-07-07T20:20:46.543Z,15.60
2018-07-07T20:23:16.949Z,15.60
2018-07-07T20:25:51.434Z,15.60
2018-07-07T20:28:26.037Z,15.50
2018-07-07T20:30:58.707Z,15.40
2018-07-07T20:33:28.423Z,15.30
2018-07-07T20:35:57.565Z,15.20
2018-07-07T20:38:26.808Z,14.90
2018-07-07T20:40:56.010Z,14.80
2018-07-07T20:43:25.236Z,14.80
2018-07-07T20:45:54.497Z,14.80
2018-07-07T20:48:23.645Z,14.70
2018-07-07T20:50:53.052Z,14.50
2018-07-07T20:53:22.199Z,14.50
2018-07-07T20:55:51.352Z,14.50
2018-07-07T20:58:20.513Z,14.40
2018-07-07T21:00:49.760Z,14.30
2018-07-07T21:03:18.869Z,14.30
2018-07-07T21:05:48.106Z,14.20
2018-07-07T21:08:17.411Z,14.30
2018-07-07T21:10:46.587Z,14.40
2018-07-07T21:13:15.748Z,14.40
2018-07-07T21:15:44.897Z,14.50
2018-07-07T21:18:14.213Z,14.50
2018-07-07T21:20:43.407Z,14.50
2018-07-07T21:23:12.663Z,14.40
2018-07-07T21:25:41.937Z,14.40
2018-07-07T21:28:11.279Z,14.50
2018-07-07T21:30:40.416Z,14.50
2018-07-07T21:33:09.559Z,14.50
2018-07-07T21:35:38.817Z,14.50
2018-07-07T21:38:07.983Z,14.50
2018-07-07T21:40:37.132Z,14.50
2018-07-07T21:43:06.584Z,14.40
2018-07-07T21:45:35.760Z,14.30
2018-07-07T21:48:05.191Z,14.20
2018-07-07T21:50:34.449Z,14.20
2018-07-07T21:53:03.622Z,14.10
2018-07-07T21:55:32.934Z,14.00
2018-07-07T21:58:07.417Z,14.00
2018-07-07T22:00:51.944Z,14.00
2018-07-07T22:03:26.464Z,14.00
2018-07-07T22:06:00.984Z,13.90
2018-07-07T22:08:30.173Z,13.80
2018-07-07T22:10:59.420Z,13.80
2018-07-07T22:13:28.597Z,13.80
2018-07-07T22:15:57.805Z,13.70
2018-07-07T22:18:27.016Z,13.70
2018-07-07T22:21:07.339Z,13.70
2018-07-07T22:23:36.584Z,13.60
2018-07-07T22:26:05.868Z,13.60
2018-07-07T22:28:35.076Z,13.50
2018-07-07T22:31:04.275Z,13.40
2018-07-07T22:33:33.421Z,13.30
2018-07-07T22:36:07.874Z,13.20
2018-07-07T22:38:42.478Z,13.10
2018-07-07T22:41:11.681Z,13.00
2018-07-07T22:43:41.948Z,12.70
2018-07-07T22:46:11.124Z,12.50
2018-07-07T22:48:40.274Z,12.20
2018-07-07T22:51:09.467Z,12.00
2018-07-07T22:53:38.732Z,11.80
2018-07-07T22:56:07.900Z,11.70
2018-07-07T22:58:37.018Z,11.60
2018-07-07T23:01:06.407Z,11.60
2018-07-07T23:03:35.580Z,11.50
2018-07-07T23:06:04.888Z,11.40
2018-07-07T23:08:34.108Z,11.30
2018-07-07T23:11:03.354Z,11.20
2018-07-07T23:13:32.558Z,11.10
2018-07-07T23:16:01.742Z,11.00
2018-07-07T23:18:30.976Z,11.00
2018-07-07T23:21:00.141Z,10.90
2018-07-07T23:23:29.266Z,11.00
2018-07-07T23:25:58.433Z,11.00
2018-07-07T23:28:27.608Z,11.00
2018-07-07T23:30:56.865Z,11.00
2018-07-07T23:33:26.122Z,10.90
2018-07-07T23:35:55.546Z,10.90
2018-07-07T23:38:24.760Z,10.80
2018-07-07T23:40:54.009Z,10.70
2018-07-07T23:43:23.175Z,10.60
2018-07-07T23:45:52.331Z,10.60
2018-07-07T23:48:21.517Z,10.50
2018-07-07T23:50:50.688Z,10.50
2018-07-07T23:53:19.993Z,10.50
2018-07-07T23:55:49.205Z,10.50
2018-07-07T23:58:18.358Z,10.50
